createdAt,value
2017-07-30T00:00:58.909Z,26.30
2017-07-30T00:03:27.148Z,26.30
2017-07-30T00:05:55.417Z,26.30
2017-07-30T00:08:23.693Z,26.40
2017-07-30T00:10:51.947Z,26.40
2017-07-30T00:13:20.252Z,26.40
2017-07-30T00:15:48.804Z,26.50
2017-07-30T00:18:17.855Z,26.50
2017-07-30T00:20:46.122Z,26.50
2017-07-30T00:23:14.407Z,26.50
2017-07-30T00:25:42.730Z,26.60
2017-07-30T00:28:11.022Z,26.60
2017-07-30T00:30:40.037Z,26.60
2017-07-30T00:33:08.326Z,26.60
2017-07-30T00:35:36.157Z,26.70
2017-07-30T00:38:04.431Z,26.70
2017-07-30T00:40:32.713Z,26.70
2017-07-30T00:43:01.274Z,26.70
2017-07-30T00:45:29.552Z,26.80
2017-07-30T00:47:58.575Z,26.80
2017-07-30T00:50:26.879Z,26.80
2017-07-30T00:52:55.926Z,26.90
2017-07-30T00:55:24.168Z,26.80
2017-07-30T00:57:52.448Z,26.90
2017-07-30T01:00:20.702Z,26.90
2017-07-30T01:02:48.990Z,26.90
2017-07-30T01:05:17.257Z,26.90
2017-07-30T01:07:46.312Z,27.00
2017-07-30T01:10:14.611Z,26.90
2017-07-30T01:12:43.674Z,27.00
2017-07-30T01:15:12.735Z,27.00
2017-07-30T01:17:41.041Z,27.00
2017-07-30T01:20:09.626Z,27.00
2017-07-30T01:22:37.873Z,27.10
2017-07-30T01:25:06.112Z,27.00
2017-07-30T01:27:35.182Z,27.10
2017-07-30T01:30:04.201Z,27.10
2017-07-30T01:32:32.452Z,27.10
2017-07-30T01:35:00.742Z,27.10
2017-07-30T01:37:30.970Z,27.10
2017-07-30T01:39:59.213Z,27.20
2017-07-30T01:42:27.517Z,27.10
2017-07-30T01:44:56.562Z,27.20
2017-07-30T01:47:24.817Z,27.20
2017-07-30T01:49:53.088Z,27.20
2017-07-30T01:52:21.340Z,27.20
2017-07-30T01:54:49.580Z,27.20
2017-07-30T01:57:18.223Z,27.30
2017-07-30T01:59:46.468Z,27.30
2017-07-30T02:02:14.749Z,27.30
2017-07-30T02:04:43.020Z,27.30
2017-07-30T02:07:11.304Z,27.30
2017-07-30T02:09:39.550Z,27.30
2017-07-30T02:12:07.849Z,27.30
2017-07-30T02:14:36.862Z,27.30
2017-07-30T02:17:05.151Z,27.30
2017-07-30T02:19:33.587Z,27.30
2017-07-30T02:22:01.842Z,27.30
2017-07-30T02:24:30.093Z,27.30
2017-07-30T02:26:58.393Z,27.30
2017-07-30T02:29:26.674Z,27.40
2017-07-30T02:31:54.961Z,27.30
2017-07-30T02:34:23.523Z,27.40
2017-07-30T02:36:52.538Z,27.40
2017-07-30T02:39:20.822Z,27.40
2017-07-30T02:41:49.092Z,27.40
2017-07-30T02:44:17.368Z,27.40
2017-07-30T02:46:46.418Z,27.40
2017-07-30T02:49:14.726Z,27.40
2017-07-30T02:51:42.978Z,27.40
2017-07-30T02:54:11.996Z,27.40
2017-07-30T02:56:40.282Z,27.40
2017-07-30T02:59:08.563Z,27.40
2017-07-30T03:01:37.618Z,27.40
2017-07-30T03:04:05.885Z,27.40
2017-07-30T03:06:34.161Z,27.50
2017-07-30T03:09:03.197Z,27.50
2017-07-30T03:11:31.821Z,27.50
2017-07-30T03:14:00.870Z,27.50
2017-07-30T03:16:29.153Z,27.50
2017-07-30T03:18:58.214Z,27.50
2017-07-30T03:21:26.606Z,27.50
2017-07-30T03:23:54.858Z,27.50
2017-07-30T03:26:23.880Z,27.50
2017-07-30T03:28:52.156Z,27.50
2017-07-30T03:31:20.439Z,27.60
2017-07-30T03:33:49.476Z,27.50
2017-07-30T03:36:17.761Z,27.50
2017-07-30T03:38:46.050Z,27.50
2017-07-30T03:41:15.123Z,27.60
2017-07-30T03:43:43.414Z,27.50
2017-07-30T03:46:11.699Z,27.60
2017-07-30T03:48:40.313Z,27.60
2017-07-30T03:51:09.362Z,27.60
2017-07-30T03:53:37.612Z,27.50
2017-07-30T03:56:05.876Z,27.60
2017-07-30T03:58:34.168Z,27.50
2017-07-30T04:01:03.181Z,27.60
2017-07-30T04:03:31.483Z,27.60
2017-07-30T04:05:59.762Z,27.60
2017-07-30T04:08:28.834Z,27.60
2017-07-30T04:10:57.094Z,27.60
2017-07-30T04:13:25.339Z,27.60
2017-07-30T04:15:53.628Z,27.60
2017-07-30T04:18:22.704Z,27.60
2017-07-30T04:20:51.720Z,27.60
2017-07-30T04:25:55.876Z,27.60
2017-07-30T04:28:24.892Z,27.70
2017-07-30T04:30:53.141Z,27.60
2017-07-30T04:33:21.440Z,27.70
2017-07-30T04:35:49.727Z,27.70
2017-07-30T04:38:18.742Z,27.70
2017-07-30T04:40:47.045Z,27.70
2017-07-30T04:43:15.385Z,27.70
2017-07-30T04:45:43.676Z,27.70
2017-07-30T04:48:11.706Z,27.70
2017-07-30T04:50:39.958Z,27.70
2017-07-30T04:53:08.244Z,27.70
2017-07-30T04:55:36.548Z,27.70
2017-07-30T04:58:04.799Z,27.70
2017-07-30T05:00:33.842Z,27.70
2017-07-30T05:03:02.437Z,27.70
2017-07-30T05:05:31.444Z,27.70
2017-07-30T05:07:59.693Z,27.70
2017-07-30T05:10:27.968Z,27.70
2017-07-30T05:12:56.251Z,27.70
2017-07-30T05:15:24.534Z,27.70
2017-07-30T05:17:52.800Z,27.70
2017-07-30T05:20:21.867Z,27.80
2017-07-30T05:22:50.108Z,27.70
2017-07-30T05:25:18.548Z,27.70
2017-07-30T05:27:46.821Z,27.70
2017-07-30T05:30:15.072Z,27.80
2017-07-30T05:32:43.329Z,27.80
2017-07-30T05:35:11.389Z,27.70
2017-07-30T05:37:39.633Z,27.80
2017-07-30T05:40:08.187Z,27.70
2017-07-30T05:42:36.432Z,27.80
2017-07-30T05:45:05.449Z,27.70
2017-07-30T05:47:33.708Z,27.70
2017-07-30T05:50:01.993Z,27.80
2017-07-30T05:52:30.287Z,27.80
2017-07-30T05:54:59.354Z,27.80
2017-07-30T05:57:28.404Z,27.80
2017-07-30T05:59:56.656Z,27.70
2017-07-30T06:02:24.954Z,27.80
2017-07-30T06:04:54.014Z,27.70
2017-07-30T06:07:22.266Z,27.80
2017-07-30T06:09:50.538Z,27.70
2017-07-30T06:12:18.785Z,27.80
2017-07-30T06:14:47.080Z,27.70
2017-07-30T06:17:16.376Z,27.80
2017-07-30T06:19:44.624Z,27.80
2017-07-30T06:22:13.679Z,27.80
2017-07-30T06:24:41.973Z,27.80
2017-07-30T06:27:10.296Z,27.80
2017-07-30T06:29:41.090Z,27.80
2017-07-30T06:32:09.373Z,27.80
2017-07-30T06:34:37.686Z,27.80
2017-07-30T06:37:05.971Z,27.80
2017-07-30T06:39:34.224Z,27.80
2017-07-30T06:42:02.515Z,27.80
2017-07-30T06:44:30.803Z,27.80
2017-07-30T06:46:59.870Z,27.80
2017-07-30T06:49:28.151Z,27.80
2017-07-30T06:51:57.207Z,27.80
2017-07-30T06:54:26.312Z,27.80
2017-07-30T06:56:54.554Z,27.80
2017-07-30T06:59:23.569Z,27.90
2017-07-30T07:01:51.875Z,27.80
2017-07-30T07:04:20.129Z,27.80
2017-07-30T07:06:48.378Z,27.80
2017-07-30T07:09:16.654Z,27.90
2017-07-30T07:11:44.905Z,27.80
2017-07-30T07:14:13.190Z,27.90
2017-07-30T07:16:42.267Z,27.90
2017-07-30T07:19:11.295Z,27.80
2017-07-30T07:21:39.536Z,27.80
2017-07-30T07:24:07.797Z,27.90
2017-07-30T07:26:36.082Z,27.90
2017-07-30T07:29:04.341Z,27.90
2017-07-30T07:31:32.597Z,27.90
2017-07-30T07:34:00.836Z,27.90
2017-07-30T07:36:29.119Z,27.90
2017-07-30T07:38:57.395Z,27.90
2017-07-30T07:41:25.636Z,27.90
2017-07-30T07:43:53.926Z,27.90
2017-07-30T07:46:22.230Z,27.90
2017-07-30T07:48:50.480Z,27.90
2017-07-30T07:51:18.840Z,27.90
2017-07-30T07:53:47.494Z,27.90
2017-07-30T07:56:16.550Z,27.90
2017-07-30T07:58:44.843Z,27.90
2017-07-30T08:01:13.791Z,27.90
2017-07-30T08:03:42.082Z,28.00
2017-07-30T08:06:10.376Z,28.00
2017-07-30T08:08:38.633Z,28.00
2017-07-30T08:11:06.914Z,28.00
2017-07-30T08:13:35.194Z,28.00
2017-07-30T08:16:03.460Z,28.00
2017-07-30T08:18:32.510Z,28.00
2017-07-30T08:21:00.807Z,28.00
2017-07-30T08:23:29.883Z,28.00
2017-07-30T08:25:58.930Z,28.00
2017-07-30T08:28:27.210Z,28.00
2017-07-30T08:30:55.610Z,28.00
2017-07-30T08:33:23.901Z,28.00
2017-07-30T08:35:52.183Z,28.00
2017-07-30T08:38:20.485Z,28.00
2017-07-30T08:40:48.729Z,28.10
2017-07-30T08:43:17.790Z,28.00
2017-07-30T08:45:46.111Z,28.00
2017-07-30T08:48:14.456Z,28.10
2017-07-30T08:50:42.721Z,28.00
2017-07-30T08:53:11.066Z,28.10
2017-07-30T08:55:39.350Z,28.10
2017-07-30T08:58:07.597Z,28.10
2017-07-30T09:00:35.852Z,28.10
2017-07-30T09:03:04.135Z,28.10
2017-07-30T09:05:32.380Z,28.10
2017-07-30T09:08:00.679Z,28.10
2017-07-30T09:10:29.022Z,28.10
2017-07-30T09:12:57.257Z,28.10
2017-07-30T09:15:25.535Z,28.10
2017-07-30T09:17:53.802Z,28.10
2017-07-30T09:20:22.065Z,28.10
2017-07-30T09:22:50.348Z,28.10
2017-07-30T09:25:18.617Z,28.10
2017-07-30T09:27:46.895Z,28.20
2017-07-30T09:30:15.958Z,28.20
2017-07-30T09:32:44.972Z,28.20
2017-07-30T09:35:13.258Z,28.20
2017-07-30T09:37:41.553Z,28.20
2017-07-30T09:40:09.851Z,28.20
2017-07-30T09:42:38.108Z,28.20
2017-07-30T09:45:06.382Z,28.20
2017-07-30T09:47:34.628Z,28.20
2017-07-30T09:50:02.885Z,28.20
2017-07-30T09:52:31.198Z,28.20
2017-07-30T09:54:59.450Z,28.30
2017-07-30T09:57:27.730Z,28.30
2017-07-30T09:59:56.815Z,28.30
2017-07-30T10:02:25.879Z,28.30
2017-07-30T10:04:54.186Z,28.20
2017-07-30T10:07:22.480Z,28.30
2017-07-30T10:09:50.770Z,28.30
2017-07-30T10:12:19.785Z,28.30
2017-07-30T10:14:48.094Z,28.30
2017-07-30T10:17:16.345Z,28.30
2017-07-30T10:19:44.635Z,28.30
2017-07-30T10:22:13.693Z,28.30
2017-07-30T10:24:41.991Z,28.30
2017-07-30T10:27:10.277Z,28.30
2017-07-30T10:29:38.553Z,28.30
2017-07-30T10:32:06.844Z,28.30
2017-07-30T10:34:35.877Z,28.40
2017-07-30T10:37:04.161Z,28.30
2017-07-30T10:39:32.431Z,28.40
2017-07-30T10:42:00.712Z,28.40
2017-07-30T10:44:29.745Z,28.40
2017-07-30T10:46:58.030Z,28.30
2017-07-30T10:49:26.321Z,28.40
2017-07-30T10:51:55.392Z,28.30
2017-07-30T10:54:24.452Z,28.30
2017-07-30T10:56:54.205Z,28.30
2017-07-30T10:59:22.479Z,28.30
2017-07-30T11:01:50.715Z,28.30
2017-07-30T11:04:19.006Z,28.30
2017-07-30T11:06:47.278Z,28.30
2017-07-30T11:09:15.562Z,28.30
2017-07-30T11:11:44.590Z,28.30
2017-07-30T11:14:12.853Z,28.30
2017-07-30T11:16:41.100Z,28.30
2017-07-30T11:19:09.358Z,28.30
2017-07-30T11:21:37.675Z,28.30
2017-07-30T11:24:06.797Z,28.40
2017-07-30T11:26:35.073Z,28.30
2017-07-30T11:29:03.375Z,28.40
2017-07-30T11:31:32.421Z,28.40
2017-07-30T11:34:00.681Z,28.40
2017-07-30T11:36:29.040Z,28.40
2017-07-30T11:38:57.347Z,28.40
2017-07-30T11:41:26.358Z,28.40
2017-07-30T11:43:54.691Z,28.40
2017-07-30T11:46:22.978Z,28.40
2017-07-30T11:48:51.220Z,28.40
2017-07-30T11:51:19.522Z,28.40
2017-07-30T11:53:47.784Z,28.50
2017-07-30T11:56:16.079Z,28.50
2017-07-30T11:58:45.150Z,28.50
2017-07-30T12:01:13.401Z,28.40
2017-07-30T12:03:41.686Z,28.50
2017-07-30T12:06:10.751Z,28.50
2017-07-30T12:08:39.756Z,28.50
2017-07-30T12:11:08.030Z,28.40
2017-07-30T12:13:36.304Z,28.50
2017-07-30T12:16:04.545Z,28.50
2017-07-30T12:18:32.793Z,28.50
2017-07-30T12:21:01.090Z,28.50
2017-07-30T12:23:29.361Z,28.50
2017-07-30T12:25:57.646Z,28.50
2017-07-30T12:28:26.714Z,28.60
2017-07-30T12:30:54.990Z,28.50
2017-07-30T12:33:24.062Z,28.50
2017-07-30T12:35:53.097Z,28.50
2017-07-30T12:38:21.381Z,28.50
2017-07-30T12:40:49.659Z,28.50
2017-07-30T12:43:18.698Z,28.60
2017-07-30T12:45:46.984Z,28.50
2017-07-30T12:48:15.226Z,28.60
2017-07-30T12:50:43.574Z,28.60
2017-07-30T12:53:11.867Z,28.60
2017-07-30T12:55:40.112Z,28.60
2017-07-30T12:58:08.402Z,28.60
2017-07-30T13:00:37.451Z,28.60
2017-07-30T13:03:05.732Z,28.60
2017-07-30T13:05:34.001Z,28.60
2017-07-30T13:08:03.013Z,28.60
2017-07-30T13:10:31.264Z,28.60
2017-07-30T13:12:59.529Z,28.60
2017-07-30T13:15:27.777Z,28.60
2017-07-30T13:17:56.063Z,28.60
2017-07-30T13:20:24.371Z,28.70
2017-07-30T13:22:53.423Z,28.70
2017-07-30T13:25:21.681Z,28.60
2017-07-30T13:27:49.937Z,28.70
2017-07-30T13:30:18.197Z,28.70
2017-07-30T13:32:46.486Z,28.70
2017-07-30T13:35:15.532Z,28.70
2017-07-30T13:37:43.829Z,28.70
2017-07-30T13:40:12.889Z,28.70
2017-07-30T13:42:41.929Z,28.70
2017-07-30T13:45:09.995Z,28.70
2017-07-30T13:47:38.236Z,28.70
2017-07-30T13:50:06.552Z,28.70
2017-07-30T13:52:34.851Z,28.70
2017-07-30T13:55:03.097Z,28.70
2017-07-30T13:57:31.379Z,28.70
2017-07-30T13:59:59.625Z,28.70
2017-07-30T14:02:27.883Z,28.70
2017-07-30T14:04:56.148Z,28.70
2017-07-30T14:07:24.398Z,28.70
2017-07-30T14:09:52.650Z,28.70
2017-07-30T14:12:20.916Z,28.70
2017-07-30T14:14:49.213Z,28.70
2017-07-30T14:17:17.490Z,28.70
2017-07-30T14:19:45.792Z,28.70
2017-07-30T14:22:14.851Z,28.70
2017-07-30T14:24:43.912Z,28.70
2017-07-30T14:27:11.982Z,28.70
2017-07-30T14:29:40.228Z,28.70
2017-07-30T14:32:08.542Z,28.80
2017-07-30T14:34:36.817Z,28.70
2017-07-30T14:37:05.068Z,28.80
2017-07-30T14:39:33.351Z,28.80
2017-07-30T14:42:01.628Z,28.80
2017-07-30T14:44:29.901Z,28.80
2017-07-30T14:46:58.193Z,28.80
2017-07-30T14:49:26.460Z,28.80
2017-07-30T14:51:54.709Z,28.80
2017-07-30T14:54:22.957Z,28.80
2017-07-30T14:56:52.015Z,28.80
2017-07-30T14:59:20.270Z,28.80
2017-07-30T15:01:48.551Z,28.80
2017-07-30T15:04:17.590Z,28.80
2017-07-30T15:06:45.926Z,28.80
2017-07-30T15:09:14.217Z,28.80
2017-07-30T15:11:42.518Z,28.80
2017-07-30T15:14:11.628Z,28.80
2017-07-30T15:16:39.907Z,28.80
2017-07-30T15:19:08.210Z,28.90
2017-07-30T15:21:37.225Z,28.90
2017-07-30T15:24:05.506Z,28.90
2017-07-30T15:26:33.785Z,28.90
2017-07-30T15:29:01.877Z,28.90
2017-07-30T15:31:29.974Z,28.90
2017-07-30T15:33:58.120Z,28.90
2017-07-30T15:36:26.398Z,28.90
2017-07-30T15:38:54.490Z,28.90
2017-07-30T15:41:23.550Z,28.90
2017-07-30T15:43:51.797Z,28.90
2017-07-30T15:46:20.082Z,28.90
2017-07-30T15:48:49.146Z,28.90
2017-07-30T15:51:17.394Z,28.90
2017-07-30T15:53:45.642Z,28.90
2017-07-30T15:56:13.943Z,28.90
2017-07-30T15:58:42.998Z,28.90
2017-07-30T16:01:11.264Z,28.90
2017-07-30T16:03:39.541Z,28.90
2017-07-30T16:06:08.553Z,28.90
2017-07-30T16:08:36.796Z,28.90
2017-07-30T16:11:05.067Z,28.90
2017-07-30T16:13:33.318Z,28.90
2017-07-30T16:16:01.599Z,28.90
2017-07-30T16:18:29.868Z,28.90
2017-07-30T16:20:58.156Z,28.90
2017-07-30T16:23:26.425Z,29.00
2017-07-30T16:25:54.718Z,29.00
2017-07-30T16:31:00.454Z,29.00
2017-07-30T16:33:28.731Z,29.00
2017-07-30T16:35:56.972Z,29.00
2017-07-30T16:38:25.241Z,29.00
2017-07-30T16:40:53.523Z,29.00
2017-07-30T16:43:21.802Z,29.00
2017-07-30T16:45:50.079Z,29.00
2017-07-30T16:48:19.106Z,29.00
2017-07-30T16:50:47.353Z,28.90
2017-07-30T16:53:15.669Z,28.90
2017-07-30T16:55:43.963Z,28.90
2017-07-30T16:58:13.007Z,28.90
2017-07-30T17:00:41.327Z,28.90
2017-07-30T17:03:09.631Z,28.90
2017-07-30T17:05:37.892Z,28.90
2017-07-30T17:08:06.194Z,29.00
2017-07-30T17:10:34.445Z,28.90
2017-07-30T17:13:02.726Z,28.90
2017-07-30T17:15:31.039Z,28.90
2017-07-30T17:18:00.157Z,29.00
2017-07-30T17:20:28.505Z,28.90
2017-07-30T17:22:56.823Z,29.00
2017-07-30T17:25:25.103Z,29.00
2017-07-30T17:27:54.146Z,29.00
2017-07-30T17:30:22.446Z,29.00
2017-07-30T17:32:51.464Z,29.00
2017-07-30T17:35:19.747Z,29.00
2017-07-30T17:37:48.647Z,29.00
2017-07-30T17:40:16.982Z,29.00
2017-07-30T17:42:45.253Z,29.00
2017-07-30T17:45:13.560Z,29.00
2017-07-30T17:47:41.855Z,29.00
2017-07-30T17:50:10.096Z,29.00
2017-07-30T17:52:38.404Z,29.00
2017-07-30T17:55:06.691Z,29.00
2017-07-30T17:57:35.746Z,29.00
2017-07-30T18:00:04.075Z,28.90
2017-07-30T18:02:32.321Z,29.00
2017-07-30T18:05:00.585Z,29.00
2017-07-30T18:07:29.062Z,29.00
2017-07-30T18:09:57.346Z,29.10
2017-07-30T18:12:25.601Z,29.10
2017-07-30T18:14:53.872Z,29.10
2017-07-30T18:17:22.175Z,29.10
2017-07-30T18:19:50.420Z,29.10
2017-07-30T18:22:18.731Z,29.10
2017-07-30T18:24:47.010Z,29.10
2017-07-30T18:27:15.302Z,29.10
2017-07-30T18:29:43.614Z,29.10
2017-07-30T18:32:11.941Z,29.10
2017-07-30T18:34:40.184Z,29.10
2017-07-30T18:37:08.456Z,29.10
2017-07-30T18:39:36.743Z,29.10
2017-07-30T18:42:05.001Z,29.10
2017-07-30T18:44:33.314Z,29.10
2017-07-30T18:47:02.357Z,29.10
2017-07-30T18:49:30.661Z,29.10
2017-07-30T18:51:58.967Z,29.10
2017-07-30T18:54:27.263Z,29.10
2017-07-30T18:56:56.280Z,29.20
2017-07-30T18:59:24.542Z,29.20
2017-07-30T19:01:52.785Z,29.20
2017-07-30T19:04:21.033Z,29.20
2017-07-30T19:06:49.342Z,29.20
2017-07-30T19:09:17.636Z,29.20
2017-07-30T19:11:46.712Z,29.20
2017-07-30T19:14:15.748Z,29.20
2017-07-30T19:16:43.994Z,29.20
2017-07-30T19:19:12.240Z,29.20
2017-07-30T19:21:40.802Z,29.20
2017-07-30T19:24:09.078Z,29.20
2017-07-30T19:26:37.170Z,29.20
2017-07-30T19:29:05.290Z,29.20
2017-07-30T19:31:33.532Z,29.20
2017-07-30T19:34:01.781Z,29.20
2017-07-30T19:36:30.817Z,29.20
2017-07-30T19:38:59.188Z,29.30
2017-07-30T19:41:27.433Z,29.30
2017-07-30T19:43:55.700Z,29.30
2017-07-30T19:46:23.953Z,29.30
2017-07-30T19:48:52.241Z,29.30
2017-07-30T19:51:20.546Z,29.30
2017-07-30T19:53:48.809Z,29.30
2017-07-30T19:56:17.103Z,29.30
2017-07-30T19:58:45.704Z,29.30
2017-07-30T20:01:14.716Z,29.30
2017-07-30T20:03:42.978Z,29.30
2017-07-30T20:06:11.667Z,29.30
2017-07-30T20:08:39.962Z,29.20
2017-07-30T20:11:09.027Z,28.80
2017-07-30T20:13:37.335Z,28.80
2017-07-30T20:16:05.615Z,28.60
2017-07-30T20:18:33.903Z,28.50
2017-07-30T20:21:02.208Z,28.40
2017-07-30T20:23:30.514Z,28.30
2017-07-30T20:25:58.786Z,28.20
2017-07-30T20:28:27.060Z,28.10
2017-07-30T20:30:55.342Z,28.10
2017-07-30T20:33:23.601Z,28.00
2017-07-30T20:35:51.861Z,27.90
2017-07-30T20:38:20.226Z,27.90
2017-07-30T20:40:48.516Z,27.80
2017-07-30T20:43:16.789Z,27.80
2017-07-30T20:45:45.039Z,27.70
2017-07-30T20:48:13.323Z,27.60
2017-07-30T20:50:41.588Z,27.50
2017-07-30T20:53:09.878Z,27.50
2017-07-30T20:55:38.890Z,27.50
2017-07-30T20:58:07.154Z,27.40
2017-07-30T21:00:35.448Z,27.40
2017-07-30T21:03:03.748Z,27.40
2017-07-30T21:05:32.013Z,27.30
2017-07-30T21:08:00.285Z,27.30
2017-07-30T21:10:28.532Z,27.20
2017-07-30T21:12:56.801Z,27.20
2017-07-30T21:15:24.793Z,27.10
2017-07-30T21:17:53.042Z,27.10
2017-07-30T21:20:21.319Z,27.00
2017-07-30T21:22:49.599Z,26.90
2017-07-30T21:25:18.664Z,27.10
2017-07-30T21:27:47.703Z,27.30
2017-07-30T21:30:15.983Z,27.20
2017-07-30T21:32:44.283Z,27.40
2017-07-30T21:35:12.599Z,27.60
2017-07-30T21:37:40.880Z,27.70
2017-07-30T21:40:09.181Z,27.80
2017-07-30T21:42:37.461Z,27.90
2017-07-30T21:45:05.746Z,28.00
2017-07-30T21:47:33.996Z,28.10
2017-07-30T21:50:02.264Z,28.10
2017-07-30T21:52:31.229Z,28.20
2017-07-30T21:54:59.554Z,28.20
2017-07-30T21:57:27.883Z,28.30
2017-07-30T21:59:56.906Z,28.30
2017-07-30T22:02:25.210Z,28.30
2017-07-30T22:04:53.852Z,28.40
2017-07-30T22:07:22.150Z,28.40
2017-07-30T22:09:51.165Z,28.40
2017-07-30T22:12:19.437Z,28.40
2017-07-30T22:14:47.697Z,28.40
2017-07-30T22:17:15.994Z,28.50
2017-07-30T22:19:44.264Z,28.30
2017-07-30T22:22:12.559Z,27.90
2017-07-30T22:24:40.812Z,27.60
2017-07-30T22:27:09.087Z,27.60
2017-07-30T22:29:37.381Z,27.70
2017-07-30T22:32:05.634Z,27.80
2017-07-30T22:34:33.915Z,27.90
2017-07-30T22:37:02.202Z,28.00
2017-07-30T22:39:31.229Z,28.20
2017-07-30T22:41:59.863Z,28.10
2017-07-30T22:44:28.110Z,28.20
2017-07-30T22:46:57.105Z,28.30
2017-07-30T22:49:25.436Z,28.30
2017-07-30T22:51:54.453Z,28.40
2017-07-30T22:54:22.743Z,28.40
2017-07-30T22:56:51.019Z,28.40
2017-07-30T22:59:20.046Z,28.50
2017-07-30T23:01:48.346Z,28.50
2017-07-30T23:04:16.661Z,28.50
2017-07-30T23:06:44.963Z,28.50
2017-07-30T23:09:13.377Z,28.60
2017-07-30T23:11:41.691Z,28.60
2017-07-30T23:14:09.987Z,28.40
2017-07-30T23:16:39.048Z,27.50
2017-07-30T23:19:07.678Z,27.50
2017-07-30T23:21:35.690Z,27.20
2017-07-30T23:24:03.946Z,26.80
2017-07-30T23:26:32.973Z,26.40
2017-07-30T23:29:01.223Z,26.40
2017-07-30T23:31:29.502Z,26.20
2017-07-30T23:33:57.807Z,26.10
2017-07-30T23:36:26.059Z,26.00
2017-07-30T23:38:55.106Z,25.80
2017-07-30T23:41:23.369Z,25.80
2017-07-30T23:43:51.651Z,25.70
2017-07-30T23:46:20.699Z,25.70
2017-07-30T23:48:49.004Z,25.70
2017-07-30T23:51:17.252Z,25.60
2017-07-30T23:53:46.306Z,25.50
2017-07-30T23:56:14.657Z,25.40
2017-07-30T23:58:42.940Z,25.40
